Time;durP1;ratioP1;P1;durP2;ratioP2;P2;SDS_P1;SDS_P2;PMS_P1;PMS_P2;Temp;Humidity;BMP_temperature;BMP_pressure;BME280_temperature;BME280_humidity;BME280_pressure;Samples;Min_cycle;Max_cycle;Signal;HPM_P1;HPM_P2
2022/03/15 00:01:59;;;;;;;38.35;15.55;;;;;;;-1.77;74.50;101627.47;1712748;83;21064;-67
2022/03/15 00:04:26;;;;;;;33.50;15.03;;;;;;;-1.78;74.39;101624.43;1702827;83;21433;-68
2022/03/15 00:06:53;;;;;;;37.98;16.73;;;;;;;-1.79;74.67;101622.69;1713170;83;21088;-69
2022/03/15 00:09:20;;;;;;;39.35;16.75;;;;;;;-1.81;74.57;101622.63;1713077;82;21086;-69
2022/03/15 00:11:49;;;;;;;33.02;16.48;;;;;;;-1.83;74.71;101616.94;1712850;82;21736;-68
2022/03/15 00:14:17;;;;;;;31.12;15.72;;;;;;;-1.83;74.92;101613.94;1713128;82;21529;-69
2022/03/15 00:16:45;;;;;;;40.05;17.10;;;;;;;-1.84;74.90;101602.24;1702743;83;20992;-68
2022/03/15 00:19:13;;;;;;;41.85;17.42;;;;;;;-1.86;75.02;101604.79;1714598;82;21053;-68
2022/03/15 00:21:39;;;;;;;32.85;15.85;;;;;;;-1.84;75.11;101611.28;1725991;83;21251;-68
2022/03/15 00:24:06;;;;;;;33.45;16.93;;;;;;;-1.86;75.47;101602.59;1725789;82;20995;-68
2022/03/15 00:26:34;;;;;;;33.23;16.55;;;;;;;-1.85;75.36;101597.91;1725719;83;21054;-68
2022/03/15 00:29:03;;;;;;;34.15;16.37;;;;;;;-1.88;75.50;101601.69;1725560;82;21122;-69
2022/03/15 00:31:30;;;;;;;35.10;16.02;;;;;;;-1.87;75.87;101594.39;1725725;83;21031;-68
2022/03/15 00:33:59;;;;;;;27.98;14.95;;;;;;;-1.86;75.90;101593.55;1726100;83;21082;-68
2022/03/15 00:36:26;;;;;;;30.82;14.38;;;;;;;-1.86;76.03;101592.27;1725742;82;20999;-68
2022/03/15 00:38:53;;;;;;;36.35;15.48;;;;;;;-1.91;76.34;101591.70;1725822;83;21086;-68
2022/03/15 00:41:20;;;;;;;31.70;15.43;;;;;;;-1.91;76.65;101585.25;1725814;82;21075;-68
2022/03/15 00:43:47;;;;;;;26.12;13.45;;;;;;;-1.91;76.80;101589.13;1725662;83;21122;-68
2022/03/15 00:46:14;;;;;;;33.10;14.43;;;;;;;-1.88;76.92;101584.91;1725915;82;21288;-67
2022/03/15 00:48:41;;;;;;;39.38;15.88;;;;;;;-1.88;77.07;101586.19;1690993;82;21076;-68
2022/03/15 00:51:09;;;;;;;30.10;14.60;;;;;;;-1.86;77.17;101586.71;1726006;83;21046;-67
2022/03/15 00:53:35;;;;;;;30.25;14.05;;;;;;;-1.84;77.36;101581.58;1725997;83;21051;-68
2022/03/15 00:56:04;;;;;;;32.23;14.98;;;;;;;-1.82;77.85;101585.10;1726058;83;21071;-67
2022/03/15 00:58:32;;;;;;;31.45;14.05;;;;;;;-1.82;77.67;101581.23;1725976;83;21184;-69
2022/03/15 01:00:59;;;;;;;31.90;14.25;;;;;;;-1.83;77.85;101584.23;1726113;82;21067;-68
2022/03/15 01:03:26;;;;;;;33.80;15.28;;;;;;;-1.83;77.79;101579.48;1726013;82;21058;-68
2022/03/15 01:05:53;;;;;;;29.35;14.68;;;;;;;-1.82;77.77;101582.52;1725915;82;21015;-67
2022/03/15 01:08:19;;;;;;;31.20;15.30;;;;;;;-1.84;78.13;101580.30;1725908;83;21058;-68
2022/03/15 01:10:46;;;;;;;28.05;14.38;;;;;;;-1.83;77.98;101582.94;1725875;81;21254;-67
2022/03/15 01:13:14;;;;;;;29.55;14.30;;;;;;;-1.85;77.85;101581.12;1725802;83;21044;-68
2022/03/15 01:15:44;;;;;;;28.47;14.83;;;;;;;-1.86;77.93;101574.19;1725837;82;21074;-68
2022/03/15 01:18:12;;;;;;;31.97;15.32;;;;;;;-1.87;78.05;101577.61;1726344;83;21067;-68
2022/03/15 01:20:43;;;;;;;30.00;14.53;;;;;;;-1.90;78.37;101572.80;1725829;82;21043;-68
2022/03/15 01:23:10;;;;;;;34.43;14.73;;;;;;;-1.89;78.50;101574.96;1726170;83;21586;-68
2022/03/15 01:25:37;;;;;;;32.05;14.55;;;;;;;-1.91;78.43;101571.05;1725675;83;21035;-69
2022/03/15 01:28:05;;;;;;;27.30;13.18;;;;;;;-1.96;78.51;101563.52;1725868;83;21015;-69
2022/03/15 01:30:32;;;;;;;35.00;15.10;;;;;;;-1.96;78.94;101569.98;1725876;82;21042;-68
2022/03/15 01:32:58;;;;;;;27.45;14.20;;;;;;;-1.96;79.15;101568.69;1725972;82;21094;-68
2022/03/15 01:35:25;;;;;;;35.33;15.45;;;;;;;-1.96;79.19;101563.52;1726119;82;21187;-68
2022/03/15 01:37:52;;;;;;;33.42;14.50;;;;;;;-1.95;79.52;101565.30;1726155;82;21047;-67
2022/03/15 01:40:20;;;;;;;31.50;14.23;;;;;;;-1.95;79.35;101569.17;1726033;83;21087;-68
2022/03/15 01:42:46;;;;;;;29.25;13.72;;;;;;;-1.98;79.41;101565.20;1725801;83;22135;-68
2022/03/15 01:45:16;;;;;;;33.58;15.05;;;;;;;-1.98;79.52;101563.91;1725823;83;21038;-68
2022/03/15 01:47:44;;;;;;;28.25;14.23;;;;;;;-1.99;79.70;101572.87;1725913;83;21316;-69
2022/03/15 01:50:11;;;;;;;31.33;14.95;;;;;;;-1.99;79.96;101562.55;1725985;82;21063;-69
2022/03/15 01:52:39;;;;;;;27.00;14.53;;;;;;;-1.99;80.35;101568.58;1725921;83;21064;-67
2022/03/15 01:55:08;;;;;;;26.57;13.30;;;;;;;-1.95;80.56;101561.84;1725988;83;21027;-67
2022/03/15 01:57:35;;;;;;;40.63;15.58;;;;;;;-1.94;80.33;101569.63;1725870;83;21568;-68
2022/03/15 02:00:06;;;;;;;27.30;12.65;;;;;;;-1.96;80.27;101558.36;1725812;83;21253;-68
2022/03/15 02:02:32;;;;;;;25.95;13.78;;;;;;;-1.98;80.29;101561.33;1726049;83;21098;-68
2022/03/15 02:04:59;;;;;;;32.38;14.65;;;;;;;-1.99;80.42;101564.71;1726039;83;21040;-68
2022/03/15 02:07:26;;;;;;;29.40;14.35;;;;;;;-2.00;80.49;101564.26;1725993;83;21004;-68
2022/03/15 02:09:55;;;;;;;25.90;13.70;;;;;;;-2.04;80.52;101562.37;1726226;83;21623;-68
2022/03/15 02:12:23;;;;;;;28.87;12.85;;;;;;;-2.03;80.60;101561.54;1725860;81;21095;-67
2022/03/15 02:14:51;;;;;;;28.05;14.40;;;;;;;-2.04;80.70;101560.22;1725936;83;21051;-69
2022/03/15 02:17:17;;;;;;;32.55;14.83;;;;;;;-2.05;80.98;101563.59;1725908;83;21010;-68
2022/03/15 02:19:44;;;;;;;26.75;13.05;;;;;;;-2.06;80.80;101560.56;1725292;83;21039;-67
2022/03/15 02:22:11;;;;;;;29.00;14.43;;;;;;;-2.09;81.05;101565.20;1718440;83;21111;-68
2022/03/15 02:24:39;;;;;;;32.23;14.15;;;;;;;-2.12;81.17;101566.36;1718491;83;21246;-68
2022/03/15 02:27:07;;;;;;;30.48;14.07;;;;;;;-2.13;81.53;101564.61;1718414;83;21028;-67
2022/03/15 02:29:34;;;;;;;31.33;13.85;;;;;;;-2.12;81.96;101571.52;1718358;83;21012;-68
2022/03/15 02:32:01;;;;;;;28.92;14.25;;;;;;;-2.13;81.90;101565.91;1718439;83;21052;-68
2022/03/15 02:34:29;;;;;;;31.77;13.95;;;;;;;-2.16;81.67;101560.64;1718473;83;21099;-68
2022/03/15 02:36:57;;;;;;;31.02;12.53;;;;;;;-2.18;81.64;101557.12;1718313;83;21048;-67
2022/03/15 02:39:24;;;;;;;28.60;14.58;;;;;;;-2.22;81.67;101557.40;1718633;83;21001;-68
2022/03/15 02:41:53;;;;;;;40.60;15.18;;;;;;;-2.26;81.77;101554.64;1718409;83;21361;-68
2022/03/15 02:44:22;;;;;;;31.00;14.50;;;;;;;-2.29;82.05;101550.67;1718272;83;21037;-68
2022/03/15 02:46:50;;;;;;;30.65;14.45;;;;;;;-2.32;82.43;101551.02;1718429;83;21068;-68
2022/03/15 02:49:18;;;;;;;30.75;14.60;;;;;;;-2.33;82.62;101551.82;1718321;83;21145;-66
2022/03/15 02:51:45;;;;;;;27.60;13.83;;;;;;;-2.34;82.83;101547.91;1718283;82;21063;-67
2022/03/15 02:54:13;;;;;;;29.98;15.48;;;;;;;-2.36;82.93;101547.84;1718386;82;21027;-68
2022/03/15 02:56:43;;;;;;;31.48;14.00;;;;;;;-2.40;83.00;101539.52;1718610;83;21106;-67
2022/03/15 02:59:12;;;;;;;30.80;13.93;;;;;;;-2.42;83.29;101545.02;1718776;82;21528;-67
2022/03/15 03:01:39;;;;;;;35.00;13.83;;;;;;;-2.43;83.28;101544.98;1718526;83;21116;-67
2022/03/15 03:04:06;;;;;;;31.27;14.25;;;;;;;-2.46;83.74;101549.62;1718351;83;21004;-67
2022/03/15 03:06:33;;;;;;;27.75;13.70;;;;;;;-2.44;84.28;101547.08;1718320;83;21071;-68
2022/03/15 03:09:00;;;;;;;28.50;13.55;;;;;;;-2.44;84.54;101547.08;1718556;83;21004;-68
2022/03/15 03:11:27;;;;;;;29.95;14.68;;;;;;;-2.44;84.53;101546.69;1718494;82;21645;-68
2022/03/15 03:13:57;;;;;;;30.43;14.23;;;;;;;-2.48;84.51;101546.09;1718355;82;21587;-69
2022/03/15 03:16:26;;;;;;;34.67;14.90;;;;;;;-2.46;84.58;101547.04;1718411;82;21060;-67
2022/03/15 03:18:57;;;;;;;29.48;15.45;;;;;;;-2.45;84.99;101555.23;1718459;83;21039;-67
2022/03/15 03:21:26;;;;;;;30.75;15.25;;;;;;;-2.45;85.18;101551.78;1715328;82;21087;-66
2022/03/15 03:23:54;;;;;;;34.50;14.95;;;;;;;-2.46;85.04;101552.20;1713032;83;21599;-67
2022/03/15 03:26:22;;;;;;;30.60;15.00;;;;;;;-2.46;85.05;101565.09;1713073;82;21124;-66
2022/03/15 03:28:51;;;;;;;33.23;15.90;;;;;;;-2.48;84.96;101556.83;1713095;82;21032;-68
2022/03/15 03:31:19;;;;;;;32.45;14.60;;;;;;;-2.49;85.16;101557.22;1713155;83;21535;-68
2022/03/15 03:33:49;;;;;;;32.73;13.85;;;;;;;-2.47;85.40;101553.41;1712911;82;21095;-68
2022/03/15 03:36:16;;;;;;;32.58;14.98;;;;;;;-2.49;85.15;101553.77;1713044;83;21083;-67
2022/03/15 03:38:43;;;;;;;36.15;16.15;;;;;;;-2.51;85.33;101554.11;1713086;83;21188;-70
2022/03/15 03:41:09;;;;;;;33.00;14.75;;;;;;;-2.54;85.26;101554.88;1713057;82;21024;-68
2022/03/15 03:43:37;;;;;;;32.55;16.07;;;;;;;-2.57;85.26;101552.19;1713083;83;21043;-67
2022/03/15 03:46:03;;;;;;;35.03;16.25;;;;;;;-2.60;85.12;101553.33;1712943;82;21052;-67
2022/03/15 03:48:30;;;;;;;35.45;16.02;;;;;;;-2.62;85.31;101548.55;1712693;83;21016;-68
2022/03/15 03:50:58;;;;;;;33.35;15.85;;;;;;;-2.63;85.52;101553.22;1702465;84;21241;-67
2022/03/15 03:53:25;;;;;;;40.25;16.95;;;;;;;-2.65;85.95;101550.58;1702533;84;21057;-68
2022/03/15 03:55:52;;;;;;;30.57;15.23;;;;;;;-2.63;85.86;101548.06;1702569;84;21042;-68
2022/03/15 03:58:19;;;;;;;37.40;17.20;;;;;;;-2.64;86.16;101548.48;1702589;84;21590;-68
2022/03/15 04:00:45;;;;;;;31.75;14.55;;;;;;;-2.63;86.12;101551.52;1702535;84;21092;-68
2022/03/15 04:03:17;;;;;;;34.50;15.83;;;;;;;-2.64;86.34;101555.34;1702559;84;21226;-67
2022/03/15 04:05:41;;;;;;;31.93;14.93;;;;;;;-2.64;86.49;101556.64;1706589;83;20970;-67
2022/03/15 04:08:07;;;;;;;34.85;15.18;;;;;;;-2.63;86.54;101554.52;1707882;78;21013;-68
2022/03/15 04:10:35;;;;;;;36.05;16.30;;;;;;;-2.61;86.72;101556.75;1707594;82;20963;-68
2022/03/15 04:13:05;;;;;;;31.15;14.40;;;;;;;-2.60;86.63;101563.65;1707633;78;20959;-68
2022/03/15 04:15:33;;;;;;;36.20;15.83;;;;;;;-2.58;86.80;101558.14;1706411;82;21085;-68
2022/03/15 04:18:01;;;;;;;35.95;14.87;;;;;;;-2.57;86.88;101561.21;1702578;84;21047;-68
2022/03/15 04:20:32;;;;;;;33.35;15.68;;;;;;;-2.55;86.90;101559.16;1704272;83;21045;-68
2022/03/15 04:23:01;;;;;;;32.13;16.27;;;;;;;-2.53;86.97;101561.81;1718648;83;21000;-67
2022/03/15 04:25:28;;;;;;;30.95;14.33;;;;;;;-2.53;87.03;101563.09;1718700;83;21851;-67
2022/03/15 04:27:59;;;;;;;35.25;15.72;;;;;;;-2.51;87.28;101564.02;1718513;83;21722;-69
2022/03/15 04:30:24;;;;;;;31.48;15.55;;;;;;;-2.49;87.29;101560.21;1718138;83;21040;-67
2022/03/15 04:32:51;;;;;;;32.85;15.18;;;;;;;-2.48;87.14;101556.83;1718334;83;21048;-67
2022/03/15 04:35:18;;;;;;;34.53;15.10;;;;;;;-2.46;87.41;101558.64;1718529;83;21103;-68
2022/03/15 04:37:45;;;;;;;33.88;15.88;;;;;;;-2.45;87.58;101547.48;1718645;83;21465;-67
2022/03/15 04:40:13;;;;;;;32.80;15.93;;;;;;;-2.41;87.77;101550.66;1718594;83;21169;-68
2022/03/15 04:42:41;;;;;;;28.12;14.38;;;;;;;-2.21;88.54;101555.69;1718529;83;21139;-68
2022/03/15 04:45:10;;;;;;;34.67;16.20;;;;;;;-1.67;88.48;101545.63;1718578;83;21091;-66
2022/03/15 04:47:39;;;;;;;30.70;14.95;;;;;;;-1.41;86.04;101543.08;1718263;83;21040;-67
2022/03/15 04:50:09;;;;;;;35.63;16.70;;;;;;;-1.38;84.69;101546.66;1718813;83;21543;-68
2022/03/15 04:52:37;;;;;;;30.77;15.75;;;;;;;-1.38;84.08;101545.75;1718635;82;21606;-68
2022/03/15 04:55:05;;;;;;;34.70;15.75;;;;;;;-1.43;83.81;101549.89;1718451;83;21528;-70
2022/03/15 04:57:32;;;;;;;34.88;15.45;;;;;;;-1.50;83.75;101543.21;1718272;83;21542;-68
2022/03/15 04:59:58;;;;;;;35.20;16.42;;;;;;;-1.52;83.81;101540.11;1718597;83;21078;-68
2022/03/15 05:02:26;;;;;;;30.48;15.35;;;;;;;-1.54;83.88;101536.20;1718286;82;21030;-68
2022/03/15 05:04:54;;;;;;;36.17;15.58;;;;;;;-1.53;84.16;101528.91;1718389;83;21205;-68
2022/03/15 05:07:20;;;;;;;34.53;15.32;;;;;;;-1.50;84.18;101531.58;1718379;82;21546;-67
2022/03/15 05:12:36;;;;;;;31.30;16.00;;;;;;;-0.73;84.77;101530.67;1718317;82;21077;-68
2022/03/15 05:15:05;;;;;;;32.63;15.63;;;;;;;0.30;82.46;101536.25;1718531;82;21100;-70
2022/03/15 05:17:33;;;;;;;30.82;15.88;;;;;;;1.15;77.90;101535.02;1718484;82;21943;-69
2022/03/15 05:20:00;;;;;;;33.98;16.07;;;;;;;1.95;74.68;101525.08;1718184;82;21065;-67
2022/03/15 05:22:27;;;;;;;29.15;15.15;;;;;;;2.78;71.41;101530.97;1723838;82;21584;-69
2022/03/15 05:24:54;;;;;;;27.75;14.58;;;;;;;3.54;66.38;101526.99;1725855;82;21011;-69
2022/03/15 05:27:21;;;;;;;30.48;14.83;;;;;;;4.19;64.88;101529.12;1725666;83;21056;-68
2022/03/15 05:29:48;;;;;;;28.30;15.65;;;;;;;4.84;61.45;101526.30;1725829;82;21148;-68
2022/03/15 05:32:14;;;;;;;27.07;14.45;;;;;;;5.52;57.86;101525.50;1725704;82;20997;-71
2022/03/15 05:34:41;;;;;;;29.35;15.68;;;;;;;6.02;57.23;101526.20;1725762;82;21057;-69
2022/03/15 05:37:08;;;;;;;27.62;14.80;;;;;;;6.52;54.64;101529.86;1725932;82;21100;-69
2022/03/15 05:39:36;;;;;;;27.40;15.03;;;;;;;6.94;53.39;101523.78;1725823;82;21073;-68
2022/03/15 05:42:05;;;;;;;25.48;14.05;;;;;;;7.39;51.18;101520.28;1725820;83;21139;-69
2022/03/15 05:44:31;;;;;;;23.25;13.72;;;;;;;7.77;49.72;101518.41;1725697;82;22279;-69
2022/03/15 05:46:58;;;;;;;23.67;13.70;;;;;;;8.17;48.35;101528.76;1725585;83;21529;-68
2022/03/15 05:49:24;;;;;;;24.67;14.20;;;;;;;8.57;47.52;101518.05;1725702;83;21036;-68
2022/03/15 05:51:51;;;;;;;27.25;13.78;;;;;;;9.06;45.77;101523.83;1725740;83;21111;-69
2022/03/15 05:54:18;;;;;;;24.72;13.83;;;;;;;9.48;44.74;101523.88;1725668;83;21627;-68
2022/03/15 05:56:45;;;;;;;26.65;14.80;;;;;;;9.79;43.31;101525.72;1725651;83;21091;-69
2022/03/15 05:59:12;;;;;;;21.15;12.75;;;;;;;9.93;42.03;101524.69;1725820;83;21016;-68
2022/03/15 06:01:38;;;;;;;23.73;13.70;;;;;;;10.22;41.81;101525.20;1706484;83;21104;-67
2022/03/15 06:04:05;;;;;;;25.17;14.00;;;;;;;10.55;40.82;101519.52;1697065;84;21052;-68
2022/03/15 06:06:32;;;;;;;25.08;13.88;;;;;;;10.93;39.92;101521.56;1711970;83;21249;-68
2022/03/15 06:08:59;;;;;;;26.27;13.60;;;;;;;11.10;38.69;101514.23;1725868;82;21017;-68
2022/03/15 06:11:28;;;;;;;22.87;13.78;;;;;;;11.27;38.23;101519.66;1725864;82;21092;-68
2022/03/15 06:13:55;;;;;;;25.75;13.28;;;;;;;11.40;37.84;101517.22;1725903;83;21053;-69
2022/03/15 06:16:22;;;;;;;23.47;13.22;;;;;;;11.64;36.76;101513.69;1726051;82;21658;-69
2022/03/15 06:18:48;;;;;;;23.73;13.10;;;;;;;11.90;36.92;101516.73;1725664;82;21933;-67
2022/03/15 06:21:15;;;;;;;23.55;13.22;;;;;;;12.10;35.74;101514.11;1725920;82;21553;-68
2022/03/15 06:23:41;;;;;;;24.12;13.68;;;;;;;12.09;35.45;101518.53;1726205;83;21497;-69
2022/03/15 06:26:09;;;;;;;22.07;13.45;;;;;;;12.24;35.43;101517.35;1726025;82;21565;-67
2022/03/15 06:28:37;;;;;;;23.22;13.40;;;;;;;12.46;35.25;101516.86;1725825;82;21061;-68
2022/03/15 06:31:04;;;;;;;23.30;13.48;;;;;;;12.51;34.54;101516.30;1726275;83;21091;-70
2022/03/15 06:33:31;;;;;;;23.32;13.13;;;;;;;12.59;34.90;101507.75;1725729;83;21130;-69
2022/03/15 06:35:58;;;;;;;24.40;12.40;;;;;;;12.67;34.52;101513.71;1725890;83;21029;-68
2022/03/15 06:38:25;;;;;;;20.75;12.93;;;;;;;12.82;34.56;101508.98;1725896;83;21104;-68
2022/03/15 06:40:53;;;;;;;20.25;12.90;;;;;;;13.14;34.22;101505.53;1726252;82;21096;-68
2022/03/15 06:43:20;;;;;;;21.15;12.88;;;;;;;13.39;33.66;101497.40;1725809;83;23207;-67
2022/03/15 06:45:47;;;;;;;21.73;12.63;;;;;;;13.66;33.52;101500.17;1725790;83;21121;-67
2022/03/15 06:48:15;;;;;;;18.75;12.43;;;;;;;13.98;32.93;101497.93;1725766;82;21013;-69
2022/03/15 06:50:42;;;;;;;22.15;12.33;;;;;;;14.29;32.30;101499.68;1725826;82;21001;-68
2022/03/15 06:53:09;;;;;;;20.57;11.68;;;;;;;14.64;32.48;101490.64;1725940;83;21116;-69
2022/03/15 06:55:36;;;;;;;19.05;10.98;;;;;;;14.95;31.32;101490.09;1725833;82;21247;-67
2022/03/15 06:58:03;;;;;;;20.00;11.57;;;;;;;14.96;30.90;101490.52;1725626;83;21033;-67
2022/03/15 07:00:30;;;;;;;20.20;11.43;;;;;;;15.01;30.29;101487.23;1725968;82;21062;-67
2022/03/15 07:02:57;;;;;;;19.80;11.15;;;;;;;15.14;30.16;101483.69;1726016;83;21036;-68
2022/03/15 07:05:23;;;;;;;18.42;10.88;;;;;;;15.43;29.98;101490.64;1726092;83;21108;-68
2022/03/15 07:07:50;;;;;;;18.17;10.95;;;;;;;15.64;29.48;101490.33;1725933;82;21193;-68
2022/03/15 07:10:19;;;;;;;16.80;10.20;;;;;;;15.81;28.87;101496.40;1725992;81;21058;-67
2022/03/15 07:12:47;;;;;;;17.27;10.95;;;;;;;15.77;28.93;101494.77;1726119;82;22105;-68
2022/03/15 07:15:17;;;;;;;18.25;9.65;;;;;;;15.79;28.71;101491.13;1725880;83;21041;-67
2022/03/15 07:17:51;;;;;;;17.03;10.60;;;;;;;15.91;28.91;101495.12;1726012;82;21069;-70
2022/03/15 07:20:18;;;;;;;15.58;10.45;;;;;;;16.03;28.88;101493.31;1725765;82;21149;-69
2022/03/15 07:22:46;;;;;;;14.90;10.15;;;;;;;16.34;28.32;101497.46;1726043;82;21029;-69
2022/03/15 07:25:13;;;;;;;18.00;10.68;;;;;;;16.57;27.82;101490.76;1725978;82;21068;-69
2022/03/15 07:27:41;;;;;;;14.33;9.73;;;;;;;16.68;27.79;101484.13;1725697;82;21053;-69
2022/03/15 07:30:10;;;;;;;15.30;9.90;;;;;;;16.88;27.12;101487.33;1725929;82;21010;-67
2022/03/15 07:32:38;;;;;;;13.50;9.85;;;;;;;17.16;26.99;101483.03;1726040;82;21049;-67
2022/03/15 07:36:23;;;;;;;17.92;11.00;;;;;;;17.63;26.25;101476.09;1796382;79;22657;-67
2022/03/15 07:38:51;;;;;;;18.40;10.85;;;;;;;17.70;25.97;101481.54;1756309;81;21012;-68
2022/03/15 07:41:23;;;;;;;16.52;9.85;;;;;;;17.82;25.77;101486.33;1724066;81;20985;-68
2022/03/15 07:43:50;;;;;;;17.55;10.32;;;;;;;17.80;25.86;101477.98;1723139;83;21032;-69
2022/03/15 07:46:19;;;;;;;15.08;9.88;;;;;;;17.96;25.76;101480.84;1709468;84;20995;-69
2022/03/15 07:48:45;;;;;;;18.20;9.75;;;;;;;18.22;25.15;101481.83;1709310;83;21121;-69
2022/03/15 07:51:14;;;;;;;16.40;10.15;;;;;;;18.20;24.94;101478.36;1709422;84;21078;-68
2022/03/15 07:53:41;;;;;;;17.12;9.85;;;;;;;18.20;24.91;101482.36;1709282;84;21221;-68
2022/03/15 07:56:10;;;;;;;15.75;10.55;;;;;;;18.48;25.03;101475.70;1709180;83;21023;-69
2022/03/15 07:58:40;;;;;;;14.23;9.27;;;;;;;18.86;24.70;101476.96;1709477;84;21542;-68
2022/03/15 08:01:12;;;;;;;15.72;10.15;;;;;;;19.17;23.65;101476.75;1709359;84;21026;-69
2022/03/15 08:03:42;;;;;;;17.75;10.45;;;;;;;19.18;23.50;101472.65;1709463;84;21537;-68
2022/03/15 08:06:07;;;;;;;16.30;9.53;;;;;;;19.16;23.26;101474.53;1709139;83;21151;-68
2022/03/15 08:08:36;;;;;;;11.97;8.80;;;;;;;19.23;23.31;101468.41;1709344;84;21010;-68
2022/03/15 08:11:07;;;;;;;14.63;9.65;;;;;;;19.36;23.40;101468.16;1713900;83;21068;-68
2022/03/15 08:13:38;;;;;;;15.20;9.67;;;;;;;19.79;23.41;101472.59;1679963;84;21053;-69
2022/03/15 08:16:07;;;;;;;14.35;9.45;;;;;;;20.18;22.68;101472.67;1707606;84;21467;-68
2022/03/15 08:18:35;;;;;;;15.25;9.33;;;;;;;20.26;22.05;101472.23;1707374;84;21072;-68
2022/03/15 08:21:05;;;;;;;14.10;9.18;;;;;;;20.17;22.36;101478.95;1707274;83;21688;-68
2022/03/15 08:23:33;;;;;;;14.60;9.47;;;;;;;20.27;21.98;101468.14;1706898;84;21049;-68
2022/03/15 08:26:03;;;;;;;15.05;8.78;;;;;;;20.63;21.97;101464.33;1707479;83;21362;-69
2022/03/15 08:28:32;;;;;;;15.23;9.30;;;;;;;20.91;21.27;101468.06;1707224;84;21080;-68
2022/03/15 08:31:04;;;;;;;13.68;9.43;;;;;;;20.98;21.68;101466.77;1707674;83;21163;-68
2022/03/15 08:33:30;;;;;;;11.73;9.03;;;;;;;21.22;21.16;101464.91;1707312;84;21081;-69
2022/03/15 08:35:57;;;;;;;13.00;8.98;;;;;;;21.39;21.30;101463.38;1698636;83;21053;-69
2022/03/15 08:38:33;;;;;;;13.65;8.20;;;;;;;21.69;20.52;101466.02;1665151;84;21116;-68
2022/03/15 08:40:58;;;;;;;17.50;9.20;;;;;;;21.81;19.95;101463.52;1694417;84;21163;-68
2022/03/15 08:43:29;;;;;;;14.38;8.93;;;;;;;21.65;20.12;101467.64;1694913;84;21081;-68
2022/03/15 08:45:56;;;;;;;14.90;9.33;;;;;;;21.46;20.19;101460.73;1694760;84;21086;-68
2022/03/15 08:48:24;;;;;;;15.43;8.98;;;;;;;21.36;19.68;101463.58;1694428;84;21073;-68
2022/03/15 08:50:51;;;;;;;13.40;9.55;;;;;;;21.25;19.98;101456.67;1694046;84;21112;-67
2022/03/15 08:53:19;;;;;;;12.55;8.93;;;;;;;20.94;20.28;101463.89;1694505;84;21629;-69
2022/03/15 08:55:46;;;;;;;16.35;8.28;;;;;;;21.07;20.39;101458.19;1694289;84;22099;-68
2022/03/15 08:58:12;;;;;;;11.20;7.92;;;;;;;21.33;19.93;101450.39;1694409;84;21030;-68
2022/03/15 09:00:42;;;;;;;12.55;8.65;;;;;;;21.23;19.92;101454.56;1694209;84;21100;-69
2022/03/15 09:03:09;;;;;;;12.70;8.38;;;;;;;21.20;19.91;101449.41;1694541;84;21122;-69
2022/03/15 09:05:40;;;;;;;12.80;8.00;;;;;;;21.11;19.69;101453.01;1694304;84;21132;-68
2022/03/15 09:08:07;;;;;;;14.00;8.03;;;;;;;21.22;20.03;101454.19;1694612;84;21133;-68
2022/03/15 09:10:34;;;;;;;10.95;7.87;;;;;;;21.44;20.09;101451.96;1694207;84;21613;-69
2022/03/15 09:13:03;;;;;;;11.93;6.85;;;;;;;21.50;19.50;101458.75;1694437;84;21058;-69
2022/03/15 09:15:34;;;;;;;12.78;7.90;;;;;;;21.26;19.07;101455.73;1694353;84;21125;-69
2022/03/15 09:18:02;;;;;;;23.23;7.57;;;;;;;21.01;19.23;101454.53;1694625;84;21136;-69
2022/03/15 09:20:47;;;;;;;11.35;6.85;;;;;;;20.33;19.59;101453.06;1694241;84;21186;-69
2022/03/15 09:23:14;;;;;;;10.60;7.28;;;;;;;20.15;20.16;101452.77;1694422;84;21046;-69
2022/03/15 09:25:40;;;;;;;13.70;8.08;;;;;;;20.25;20.08;101453.99;1694343;84;21022;-69
2022/03/15 09:28:07;;;;;;;11.60;7.40;;;;;;;20.37;20.01;101453.77;1694263;84;21070;-69
2022/03/15 09:30:35;;;;;;;9.88;6.95;;;;;;;20.46;20.22;101444.36;1687971;84;21100;-71
2022/03/15 09:33:02;;;;;;;20.48;7.78;;;;;;;20.54;20.19;101452.78;1666340;86;21247;-69
2022/03/15 09:35:29;;;;;;;11.85;6.10;;;;;;;20.67;19.80;101449.82;1666118;84;21120;-69
2022/03/15 09:37:55;;;;;;;8.25;5.90;;;;;;;20.60;19.65;101459.16;1666345;86;21121;-69
2022/03/15 09:40:25;;;;;;;7.92;6.00;;;;;;;20.47;19.62;101455.43;1666406;86;21124;-69
2022/03/15 09:42:59;;;;;;;11.20;6.83;;;;;;;20.45;19.46;101453.31;1666509;86;21096;-69
2022/03/15 09:45:30;;;;;;;10.38;6.30;;;;;;;20.13;19.90;101448.01;1666407;86;21137;-70
2022/03/15 09:47:58;;;;;;;9.70;6.28;;;;;;;19.90;20.42;101447.47;1666373;86;21050;-69
2022/03/15 09:50:25;;;;;;;9.13;6.08;;;;;;;20.08;20.39;101448.72;1689118;84;21136;-69
2022/03/15 09:52:54;;;;;;;8.18;6.08;;;;;;;20.42;19.95;101445.48;1694342;84;21125;-68
2022/03/15 09:55:21;;;;;;;11.50;5.95;;;;;;;20.70;19.53;101442.08;1694297;84;21142;-70
2022/03/15 09:57:47;;;;;;;13.08;5.80;;;;;;;20.69;19.39;101438.55;1694430;84;21191;-69
2022/03/15 10:00:16;;;;;;;11.60;6.25;;;;;;;20.61;19.59;101442.14;1694289;84;21101;-68
2022/03/15 10:02:44;;;;;;;13.32;5.83;;;;;;;20.67;19.41;101443.13;1694612;84;21659;-68
2022/03/15 10:05:11;;;;;;;9.55;5.92;;;;;;;20.66;19.47;101440.08;1694159;84;22110;-68
2022/03/15 10:07:38;;;;;;;8.95;6.40;;;;;;;20.72;19.53;101434.34;1694273;84;21041;-68
2022/03/15 10:10:10;;;;;;;9.50;5.78;;;;;;;20.73;19.59;101433.89;1694401;84;21269;-68
2022/03/15 10:12:37;;;;;;;14.05;6.47;;;;;;;20.73;19.69;101431.22;1694280;83;21507;-70
2022/03/15 10:15:16;;;;;;;8.95;5.83;;;;;;;20.97;19.86;101424.86;1694321;84;21109;-68
2022/03/15 10:18:04;;;;;;;9.00;5.22;;;;;;;21.40;19.28;101426.30;1694265;84;21064;-69
2022/03/15 10:20:29;;;;;;;7.75;5.75;;;;;;;21.49;18.86;101423.05;1693498;84;21558;-70
2022/03/15 10:23:00;;;;;;;10.48;5.90;;;;;;;21.31;18.81;101416.13;1694389;84;21177;-69
2022/03/15 10:25:27;;;;;;;7.28;4.97;;;;;;;21.03;19.38;101421.83;1694174;83;21023;-68
2022/03/15 10:28:00;;;;;;;9.93;5.10;;;;;;;20.89;19.61;101415.08;1695759;84;21126;-69
2022/03/15 10:30:29;;;;;;;11.73;4.75;;;;;;;20.89;18.74;101417.75;1694427;84;21132;-69
2022/03/15 10:33:02;;;;;;;8.08;5.00;;;;;;;20.54;19.09;101428.70;1694683;84;21078;-70
2022/03/15 10:35:40;;;;;;;8.03;4.97;;;;;;;20.09;19.36;101425.05;1695616;83;21089;-69
2022/03/15 10:38:08;;;;;;;10.18;5.12;;;;;;;19.69;19.74;101420.56;1694299;83;21066;-71
2022/03/15 10:40:46;;;;;;;10.40;5.37;;;;;;;19.55;20.13;101417.75;1694405;84;21125;-69
2022/03/15 10:43:20;;;;;;;10.93;5.83;;;;;;;19.28;20.20;101406.29;1694405;84;21118;-69
2022/03/15 10:45:55;;;;;;;8.30;4.80;;;;;;;18.98;21.03;101414.08;1689419;84;21069;-69
2022/03/15 10:48:25;;;;;;;8.80;5.40;;;;;;;19.07;20.94;101408.25;1694057;84;21132;-69
2022/03/15 10:51:14;;;;;;;8.83;5.65;;;;;;;19.22;20.69;101408.80;1666339;84;21121;-68
2022/03/15 10:53:47;;;;;;;9.75;5.40;;;;;;;19.09;20.81;101409.05;1666425;85;21081;-70
2022/03/15 10:56:23;;;;;;;8.45;5.15;;;;;;;18.93;20.87;101402.78;1666290;85;21069;-69
2022/03/15 10:58:55;;;;;;;7.22;4.72;;;;;;;19.01;21.15;101401.45;1666646;86;21588;-68
2022/03/15 11:01:24;;;;;;;9.75;4.75;;;;;;;19.38;20.93;101399.50;1664729;86;21284;-69
2022/03/15 11:04:02;;;;;;;9.08;5.15;;;;;;;19.47;20.77;101399.00;1666560;86;21096;-69
2022/03/15 11:06:41;;;;;;;7.58;4.70;;;;;;;19.47;20.76;101400.34;1666339;86;21088;-69
2022/03/15 11:09:24;;;;;;;6.78;4.53;;;;;;;19.61;20.63;101400.06;1666088;86;21129;-69
2022/03/15 11:12:02;;;;;;;7.85;4.55;;;;;;;19.75;20.29;101392.17;1666381;86;21149;-68
2022/03/15 11:14:44;;;;;;;7.47;4.92;;;;;;;19.56;20.33;101391.44;1666258;85;21042;-69
2022/03/15 11:17:15;;;;;;;10.08;5.10;;;;;;;19.20;20.23;101379.97;1666282;86;21089;-69
2022/03/15 11:19:50;;;;;;;10.72;5.65;;;;;;;18.75;20.83;101385.87;1666282;85;21092;-69
2022/03/15 11:22:21;;;;;;;9.35;4.83;;;;;;;18.61;21.44;101382.13;1666258;85;21133;-69
2022/03/15 11:25:00;;;;;;;8.93;5.12;;;;;;;18.55;21.38;101379.75;1666333;86;21104;-69